sensor_id;sensor_type;location;lat;lon;timestamp;P1;durP1;ratioP1;P2;durP2;ratioP2
52768;SDS011;40471;44.534;18.644;2023-11-18T00:01:49;6.73;;;3.33;;
52768;SDS011;40471;44.534;18.644;2023-11-18T00:04:15;2.20;;;1.03;;
52768;SDS011;40471;44.534;18.644;2023-11-18T00:06:43;2.13;;;0.70;;
52768;SDS011;40471;44.534;18.644;2023-11-18T00:09:13;3.13;;;1.17;;
52768;SDS011;40471;44.534;18.644;2023-11-18T00:11:39;3.13;;;0.93;;
52768;SDS011;40471;44.534;18.644;2023-11-18T00:14:06;3.05;;;1.67;;
52768;SDS011;40471;44.534;18.644;2023-11-18T00:16:32;4.93;;;1.40;;
52768;SDS011;40471;44.534;18.644;2023-11-18T00:18:59;4.25;;;2.47;;
52768;SDS011;40471;44.534;18.644;2023-11-18T00:21:26;9.27;;;3.28;;
52768;SDS011;40471;44.534;18.644;2023-11-18T00:23:53;3.25;;;1.42;;
52768;SDS011;40471;44.534;18.644;2023-11-18T00:26:20;0.47;;;0.22;;
52768;SDS011;40471;44.534;18.644;2023-11-18T00:28:46;3.30;;;2.13;;
52768;SDS011;40471;44.534;18.644;2023-11-18T00:31:13;4.70;;;1.33;;
52768;SDS011;40471;44.534;18.644;2023-11-18T00:33:39;5.63;;;1.27;;
52768;SDS011;40471;44.534;18.644;2023-11-18T00:36:06;4.13;;;1.63;;
52768;SDS011;40471;44.534;18.644;2023-11-18T00:38:32;2.33;;;1.17;;
52768;SDS011;40471;44.534;18.644;2023-11-18T00:40:58;6.47;;;2.13;;
52768;SDS011;40471;44.534;18.644;2023-11-18T00:43:25;3.47;;;1.10;;
52768;SDS011;40471;44.534;18.644;2023-11-18T00:45:51;5.28;;;1.38;;
52768;SDS011;40471;44.534;18.644;2023-11-18T00:48:17;4.37;;;2.13;;
52768;SDS011;40471;44.534;18.644;2023-11-18T00:50:42;2.97;;;0.40;;
52768;SDS011;40471;44.534;18.644;2023-11-18T00:53:08;5.13;;;2.03;;
52768;SDS011;40471;44.534;18.644;2023-11-18T00:55:35;4.28;;;1.83;;
52768;SDS011;40471;44.534;18.644;2023-11-18T00:58:01;0.50;;;0.30;;
52768;SDS011;40471;44.534;18.644;2023-11-18T01:00:27;0.95;;;0.60;;
52768;SDS011;40471;44.534;18.644;2023-11-18T01:02:53;1.50;;;0.80;;
52768;SDS011;40471;44.534;18.644;2023-11-18T01:05:22;2.20;;;0.30;;
52768;SDS011;40471;44.534;18.644;2023-11-18T01:07:48;4.10;;;0.97;;
52768;SDS011;40471;44.534;18.644;2023-11-18T01:10:14;1.40;;;0.32;;
52768;SDS011;40471;44.534;18.644;2023-11-18T01:12:40;0.70;;;0.20;;
52768;SDS011;40471;44.534;18.644;2023-11-18T01:15:09;2.75;;;1.15;;
52768;SDS011;40471;44.534;18.644;2023-11-18T01:17:35;1.98;;;0.95;;
52768;SDS011;40471;44.534;18.644;2023-11-18T01:20:01;1.67;;;0.87;;
52768;SDS011;40471;44.534;18.644;2023-11-18T01:22:34;0.70;;;0.30;;
52768;SDS011;40471;44.534;18.644;2023-11-18T01:25:00;4.07;;;1.90;;
52768;SDS011;40471;44.534;18.644;2023-11-18T01:27:26;2.42;;;0.50;;
52768;SDS011;40471;44.534;18.644;2023-11-18T01:29:52;1.17;;;0.33;;
52768;SDS011;40471;44.534;18.644;2023-11-18T01:32:18;1.73;;;0.50;;
52768;SDS011;40471;44.534;18.644;2023-11-18T01:34:44;3.00;;;1.43;;
52768;SDS011;40471;44.534;18.644;2023-11-18T01:37:15;6.80;;;2.40;;
52768;SDS011;40471;44.534;18.644;2023-11-18T01:39:41;5.05;;;1.13;;
52768;SDS011;40471;44.534;18.644;2023-11-18T01:42:07;5.17;;;2.67;;
52768;SDS011;40471;44.534;18.644;2023-11-18T01:44:32;2.00;;;0.97;;
52768;SDS011;40471;44.534;18.644;2023-11-18T01:47:01;1.52;;;0.47;;
52768;SDS011;40471;44.534;18.644;2023-11-18T01:49:31;3.15;;;1.15;;
52768;SDS011;40471;44.534;18.644;2023-11-18T01:51:57;1.75;;;0.60;;
52768;SDS011;40471;44.534;18.644;2023-11-18T01:54:26;7.15;;;1.95;;
52768;SDS011;40471;44.534;18.644;2023-11-18T01:59:19;0.10;;;0.00;;
52768;SDS011;40471;44.534;18.644;2023-11-18T02:01:49;1.87;;;0.20;;
52768;SDS011;40471;44.534;18.644;2023-11-18T02:04:16;1.38;;;0.38;;
52768;SDS011;40471;44.534;18.644;2023-11-18T02:06:44;3.45;;;1.65;;
52768;SDS011;40471;44.534;18.644;2023-11-18T02:09:12;1.67;;;0.60;;
52768;SDS011;40471;44.534;18.644;2023-11-18T02:11:41;2.47;;;0.38;;
52768;SDS011;40471;44.534;18.644;2023-11-18T02:14:16;2.42;;;0.82;;
52768;SDS011;40471;44.534;18.644;2023-11-18T02:16:45;4.47;;;0.75;;
52768;SDS011;40471;44.534;18.644;2023-11-18T02:19:19;0.65;;;0.20;;
52768;SDS011;40471;44.534;18.644;2023-11-18T02:21:47;5.82;;;1.25;;
52768;SDS011;40471;44.534;18.644;2023-11-18T02:26:56;1.88;;;0.70;;
52768;SDS011;40471;44.534;18.644;2023-11-18T02:29:23;1.00;;;0.63;;
52768;SDS011;40471;44.534;18.644;2023-11-18T02:31:52;3.97;;;0.60;;
52768;SDS011;40471;44.534;18.644;2023-11-18T02:34:22;6.03;;;1.83;;
52768;SDS011;40471;44.534;18.644;2023-11-18T02:36:52;1.27;;;0.20;;
52768;SDS011;40471;44.534;18.644;2023-11-18T02:39:29;0.63;;;0.40;;
52768;SDS011;40471;44.534;18.644;2023-11-18T02:42:03;1.88;;;1.27;;
52768;SDS011;40471;44.534;18.644;2023-11-18T02:44:33;2.22;;;0.93;;
52768;SDS011;40471;44.534;18.644;2023-11-18T02:47:01;0.90;;;0.30;;
52768;SDS011;40471;44.534;18.644;2023-11-18T02:49:30;0.80;;;0.40;;
52768;SDS011;40471;44.534;18.644;2023-11-18T02:54:22;0.70;;;0.52;;
52768;SDS011;40471;44.534;18.644;2023-11-18T02:56:48;3.00;;;0.93;;
52768;SDS011;40471;44.534;18.644;2023-11-18T02:59:17;1.20;;;0.47;;
52768;SDS011;40471;44.534;18.644;2023-11-18T03:01:43;5.65;;;0.93;;
52768;SDS011;40471;44.534;18.644;2023-11-18T03:04:09;0.22;;;0.13;;
52768;SDS011;40471;44.534;18.644;2023-11-18T03:06:35;3.78;;;0.57;;
52768;SDS011;40471;44.534;18.644;2023-11-18T03:09:02;0.80;;;0.40;;
52768;SDS011;40471;44.534;18.644;2023-11-18T03:11:32;8.48;;;0.60;;
52768;SDS011;40471;44.534;18.644;2023-11-18T03:13:58;2.33;;;0.40;;
52768;SDS011;40471;44.534;18.644;2023-11-18T03:16:24;1.83;;;0.40;;
52768;SDS011;40471;44.534;18.644;2023-11-18T03:18:50;1.07;;;0.60;;
52768;SDS011;40471;44.534;18.644;2023-11-18T03:21:16;1.50;;;0.50;;
52768;SDS011;40471;44.534;18.644;2023-11-18T03:23:42;4.47;;;0.30;;
52768;SDS011;40471;44.534;18.644;2023-11-18T03:26:08;0.88;;;0.30;;
52768;SDS011;40471;44.534;18.644;2023-11-18T03:28:38;0.43;;;0.10;;
52768;SDS011;40471;44.534;18.644;2023-11-18T03:31:05;0.50;;;0.20;;
52768;SDS011;40471;44.534;18.644;2023-11-18T03:33:31;0.57;;;0.20;;
52768;SDS011;40471;44.534;18.644;2023-11-18T03:35:57;3.03;;;0.30;;
52768;SDS011;40471;44.534;18.644;2023-11-18T03:38:23;1.17;;;0.30;;
52768;SDS011;40471;44.534;18.644;2023-11-18T03:40:49;1.70;;;0.30;;
52768;SDS011;40471;44.534;18.644;2023-11-18T03:43:17;0.80;;;0.32;;
52768;SDS011;40471;44.534;18.644;2023-11-18T03:45:43;1.42;;;0.40;;
52768;SDS011;40471;44.534;18.644;2023-11-18T03:48:09;1.77;;;0.40;;
52768;SDS011;40471;44.534;18.644;2023-11-18T03:50:39;0.55;;;0.13;;
52768;SDS011;40471;44.534;18.644;2023-11-18T03:53:05;0.20;;;0.10;;
52768;SDS011;40471;44.534;18.644;2023-11-18T03:55:31;1.97;;;0.33;;
52768;SDS011;40471;44.534;18.644;2023-11-18T03:57:57;3.83;;;0.67;;
52768;SDS011;40471;44.534;18.644;2023-11-18T04:00:23;5.57;;;1.43;;
52768;SDS011;40471;44.534;18.644;2023-11-18T04:02:55;14.20;;;1.55;;
52768;SDS011;40471;44.534;18.644;2023-11-18T04:05:21;1.50;;;0.77;;
52768;SDS011;40471;44.534;18.644;2023-11-18T04:07:47;2.40;;;0.73;;
52768;SDS011;40471;44.534;18.644;2023-11-18T04:10:13;3.07;;;0.83;;
52768;SDS011;40471;44.534;18.644;2023-11-18T04:15:06;1.75;;;0.60;;
52768;SDS011;40471;44.534;18.644;2023-11-18T04:17:32;1.92;;;0.52;;
52768;SDS011;40471;44.534;18.644;2023-11-18T04:19:58;3.03;;;0.60;;
52768;SDS011;40471;44.534;18.644;2023-11-18T04:22:24;0.80;;;0.20;;
52768;SDS011;40471;44.534;18.644;2023-11-18T04:24:50;0.67;;;0.30;;
52768;SDS011;40471;44.534;18.644;2023-11-18T04:27:16;1.27;;;0.23;;
52768;SDS011;40471;44.534;18.644;2023-11-18T04:29:42;7.73;;;2.00;;
52768;SDS011;40471;44.534;18.644;2023-11-18T04:32:08;3.13;;;1.23;;
52768;SDS011;40471;44.534;18.644;2023-11-18T04:34:37;6.67;;;1.43;;
52768;SDS011;40471;44.534;18.644;2023-11-18T04:37:05;12.05;;;1.08;;
52768;SDS011;40471;44.534;18.644;2023-11-18T04:39:31;7.95;;;2.17;;
52768;SDS011;40471;44.534;18.644;2023-11-18T04:41:57;6.00;;;2.60;;
52768;SDS011;40471;44.534;18.644;2023-11-18T04:44:23;4.37;;;0.70;;
52768;SDS011;40471;44.534;18.644;2023-11-18T04:46:49;4.17;;;0.73;;
52768;SDS011;40471;44.534;18.644;2023-11-18T04:49:15;5.13;;;1.93;;
52768;SDS011;40471;44.534;18.644;2023-11-18T04:51:41;1.37;;;0.50;;
52768;SDS011;40471;44.534;18.644;2023-11-18T04:54:07;3.23;;;1.10;;
52768;SDS011;40471;44.534;18.644;2023-11-18T04:56:36;3.22;;;1.25;;
52768;SDS011;40471;44.534;18.644;2023-11-18T04:59:02;2.92;;;0.70;;
52768;SDS011;40471;44.534;18.644;2023-11-18T05:01:30;3.08;;;1.55;;
52768;SDS011;40471;44.534;18.644;2023-11-18T05:03:56;5.55;;;1.83;;
52768;SDS011;40471;44.534;18.644;2023-11-18T05:06:22;6.00;;;1.50;;
52768;SDS011;40471;44.534;18.644;2023-11-18T05:08:48;12.30;;;3.83;;
52768;SDS011;40471;44.534;18.644;2023-11-18T05:11:14;6.55;;;4.18;;
52768;SDS011;40471;44.534;18.644;2023-11-18T05:13:40;4.80;;;2.73;;
52768;SDS011;40471;44.534;18.644;2023-11-18T05:16:06;7.03;;;2.67;;
52768;SDS011;40471;44.534;18.644;2023-11-18T05:18:33;10.83;;;5.03;;
52768;SDS011;40471;44.534;18.644;2023-11-18T05:21:02;8.48;;;4.45;;
52768;SDS011;40471;44.534;18.644;2023-11-18T05:23:30;5.53;;;3.60;;
52768;SDS011;40471;44.534;18.644;2023-11-18T05:25:57;6.78;;;3.92;;
52768;SDS011;40471;44.534;18.644;2023-11-18T05:28:26;7.55;;;4.03;;
52768;SDS011;40471;44.534;18.644;2023-11-18T05:30:51;7.07;;;4.73;;
52768;SDS011;40471;44.534;18.644;2023-11-18T05:33:17;3.00;;;1.63;;
52768;SDS011;40471;44.534;18.644;2023-11-18T05:38:16;2.40;;;1.80;;
52768;SDS011;40471;44.534;18.644;2023-11-18T05:40:45;5.95;;;3.00;;
52768;SDS011;40471;44.534;18.644;2023-11-18T05:43:27;4.80;;;2.70;;
52768;SDS011;40471;44.534;18.644;2023-11-18T05:45:56;9.40;;;3.08;;
52768;SDS011;40471;44.534;18.644;2023-11-18T05:48:44;16.77;;;5.78;;
52768;SDS011;40471;44.534;18.644;2023-11-18T05:51:10;9.35;;;5.13;;
52768;SDS011;40471;44.534;18.644;2023-11-18T05:53:40;7.70;;;4.82;;
52768;SDS011;40471;44.534;18.644;2023-11-18T05:56:09;11.48;;;4.43;;
52768;SDS011;40471;44.534;18.644;2023-11-18T05:58:34;7.80;;;3.87;;
52768;SDS011;40471;44.534;18.644;2023-11-18T06:01:00;9.13;;;4.60;;
52768;SDS011;40471;44.534;18.644;2023-11-18T06:03:27;7.95;;;6.88;;
52768;SDS011;40471;44.534;18.644;2023-11-18T06:05:53;17.27;;;9.25;;
52768;SDS011;40471;44.534;18.644;2023-11-18T06:08:19;31.77;;;13.50;;
52768;SDS011;40471;44.534;18.644;2023-11-18T06:10:47;22.35;;;13.95;;
52768;SDS011;40471;44.534;18.644;2023-11-18T06:13:14;23.40;;;16.02;;
52768;SDS011;40471;44.534;18.644;2023-11-18T06:15:41;37.60;;;18.80;;
52768;SDS011;40471;44.534;18.644;2023-11-18T06:18:08;42.20;;;23.45;;
52768;SDS011;40471;44.534;18.644;2023-11-18T06:20:34;30.95;;;21.02;;
52768;SDS011;40471;44.534;18.644;2023-11-18T06:23:00;34.50;;;20.60;;
52768;SDS011;40471;44.534;18.644;2023-11-18T06:25:26;45.37;;;22.40;;
52768;SDS011;40471;44.534;18.644;2023-11-18T06:27:52;33.58;;;21.48;;
52768;SDS011;40471;44.534;18.644;2023-11-18T06:30:18;28.93;;;16.50;;
52768;SDS011;40471;44.534;18.644;2023-11-18T06:32:45;31.92;;;19.98;;
52768;SDS011;40471;44.534;18.644;2023-11-18T06:35:12;29.13;;;17.55;;
52768;SDS011;40471;44.534;18.644;2023-11-18T06:37:40;43.47;;;16.30;;
52768;SDS011;40471;44.534;18.644;2023-11-18T06:40:06;24.37;;;11.50;;
52768;SDS011;40471;44.534;18.644;2023-11-18T06:42:44;17.38;;;8.73;;
52768;SDS011;40471;44.534;18.644;2023-11-18T06:45:12;30.83;;;8.95;;
52768;SDS011;40471;44.534;18.644;2023-11-18T06:47:40;44.58;;;7.95;;
52768;SDS011;40471;44.534;18.644;2023-11-18T06:50:09;23.02;;;7.80;;
52768;SDS011;40471;44.534;18.644;2023-11-18T06:52:39;12.70;;;5.72;;
52768;SDS011;40471;44.534;18.644;2023-11-18T06:55:08;24.38;;;10.57;;
52768;SDS011;40471;44.534;18.644;2023-11-18T06:57:35;17.37;;;7.00;;
52768;SDS011;40471;44.534;18.644;2023-11-18T07:00:01;9.98;;;4.95;;
52768;SDS011;40471;44.534;18.644;2023-11-18T07:02:32;3.42;;;2.22;;
52768;SDS011;40471;44.534;18.644;2023-11-18T07:04:58;10.23;;;4.57;;
52768;SDS011;40471;44.534;18.644;2023-11-18T07:07:24;9.80;;;4.37;;
52768;SDS011;40471;44.534;18.644;2023-11-18T07:09:50;6.37;;;3.07;;
52768;SDS011;40471;44.534;18.644;2023-11-18T07:12:17;7.05;;;3.38;;
52768;SDS011;40471;44.534;18.644;2023-11-18T07:14:47;3.22;;;1.80;;
52768;SDS011;40471;44.534;18.644;2023-11-18T07:17:13;6.97;;;3.42;;
52768;SDS011;40471;44.534;18.644;2023-11-18T07:19:39;5.80;;;0.93;;
52768;SDS011;40471;44.534;18.644;2023-11-18T07:22:05;1.63;;;1.30;;
52768;SDS011;40471;44.534;18.644;2023-11-18T07:24:32;7.43;;;2.50;;
52768;SDS011;40471;44.534;18.644;2023-11-18T07:26:58;12.80;;;2.53;;
52768;SDS011;40471;44.534;18.644;2023-11-18T07:29:25;5.20;;;1.58;;
52768;SDS011;40471;44.534;18.644;2023-11-18T07:31:52;1.33;;;0.80;;
52768;SDS011;40471;44.534;18.644;2023-11-18T07:34:21;8.15;;;3.28;;
52768;SDS011;40471;44.534;18.644;2023-11-18T07:36:48;7.30;;;1.02;;
52768;SDS011;40471;44.534;18.644;2023-11-18T07:39:15;2.97;;;0.63;;
52768;SDS011;40471;44.534;18.644;2023-11-18T07:41:45;6.28;;;1.65;;
52768;SDS011;40471;44.534;18.644;2023-11-18T07:44:10;1.07;;;0.90;;
52768;SDS011;40471;44.534;18.644;2023-11-18T07:46:38;2.00;;;1.17;;
52768;SDS011;40471;44.534;18.644;2023-11-18T07:49:03;1.27;;;0.50;;
52768;SDS011;40471;44.534;18.644;2023-11-18T07:51:29;2.73;;;1.13;;
52768;SDS011;40471;44.534;18.644;2023-11-18T07:53:57;6.60;;;1.45;;
52768;SDS011;40471;44.534;18.644;2023-11-18T07:56:23;4.15;;;1.13;;
52768;SDS011;40471;44.534;18.644;2023-11-18T07:58:49;3.53;;;1.30;;
52768;SDS011;40471;44.534;18.644;2023-11-18T08:01:17;3.83;;;1.67;;
52768;SDS011;40471;44.534;18.644;2023-11-18T08:03:43;1.00;;;0.50;;
52768;SDS011;40471;44.534;18.644;2023-11-18T08:06:08;1.90;;;0.50;;
52768;SDS011;40471;44.534;18.644;2023-11-18T08:08:38;2.33;;;0.80;;
52768;SDS011;40471;44.534;18.644;2023-11-18T08:11:04;8.57;;;1.33;;
52768;SDS011;40471;44.534;18.644;2023-11-18T08:15:56;16.77;;;2.85;;
52768;SDS011;40471;44.534;18.644;2023-11-18T08:18:25;8.98;;;0.88;;
52768;SDS011;40471;44.534;18.644;2023-11-18T08:20:52;1.80;;;1.05;;
52768;SDS011;40471;44.534;18.644;2023-11-18T08:23:18;3.88;;;1.55;;
52768;SDS011;40471;44.534;18.644;2023-11-18T08:25:44;8.13;;;0.70;;
52768;SDS011;40471;44.534;18.644;2023-11-18T08:28:11;1.85;;;0.60;;
52768;SDS011;40471;44.534;18.644;2023-11-18T08:30:39;2.45;;;0.50;;
52768;SDS011;40471;44.534;18.644;2023-11-18T08:33:04;4.40;;;1.27;;
52768;SDS011;40471;44.534;18.644;2023-11-18T08:35:34;1.52;;;1.05;;
52768;SDS011;40471;44.534;18.644;2023-11-18T08:38:00;4.65;;;1.70;;
52768;SDS011;40471;44.534;18.644;2023-11-18T08:40:26;3.22;;;1.40;;
52768;SDS011;40471;44.534;18.644;2023-11-18T08:42:52;3.05;;;0.88;;
52768;SDS011;40471;44.534;18.644;2023-11-18T08:45:26;2.30;;;1.85;;
52768;SDS011;40471;44.534;18.644;2023-11-18T08:47:54;5.28;;;0.98;;
52768;SDS011;40471;44.534;18.644;2023-11-18T08:52:49;1.95;;;0.88;;
52768;SDS011;40471;44.534;18.644;2023-11-18T08:55:19;2.08;;;0.88;;
52768;SDS011;40471;44.534;18.644;2023-11-18T08:57:49;2.35;;;1.67;;
52768;SDS011;40471;44.534;18.644;2023-11-18T09:00:28;3.05;;;1.27;;
52768;SDS011;40471;44.534;18.644;2023-11-18T09:03:13;7.68;;;2.85;;
52768;SDS011;40471;44.534;18.644;2023-11-18T09:05:49;3.03;;;1.30;;
52768;SDS011;40471;44.534;18.644;2023-11-18T09:11:11;2.45;;;1.77;;
52768;SDS011;40471;44.534;18.644;2023-11-18T09:13:45;5.15;;;4.18;;
52768;SDS011;40471;44.534;18.644;2023-11-18T09:16:32;2.30;;;0.73;;
52768;SDS011;40471;44.534;18.644;2023-11-18T09:19:03;4.72;;;2.08;;
52768;SDS011;40471;44.534;18.644;2023-11-18T09:21:35;7.40;;;3.13;;
52768;SDS011;40471;44.534;18.644;2023-11-18T09:24:01;8.50;;;1.73;;
52768;SDS011;40471;44.534;18.644;2023-11-18T09:26:30;2.55;;;1.20;;
52768;SDS011;40471;44.534;18.644;2023-11-18T09:28:56;13.52;;;5.13;;
52768;SDS011;40471;44.534;18.644;2023-11-18T09:31:23;7.80;;;2.08;;
52768;SDS011;40471;44.534;18.644;2023-11-18T09:33:49;7.88;;;1.45;;
52768;SDS011;40471;44.534;18.644;2023-11-18T09:36:17;5.70;;;2.90;;
52768;SDS011;40471;44.534;18.644;2023-11-18T09:38:44;4.97;;;2.60;;
52768;SDS011;40471;44.534;18.644;2023-11-18T09:41:14;6.78;;;1.80;;
52768;SDS011;40471;44.534;18.644;2023-11-18T09:43:41;6.57;;;0.73;;
52768;SDS011;40471;44.534;18.644;2023-11-18T09:46:13;7.90;;;1.15;;
52768;SDS011;40471;44.534;18.644;2023-11-18T09:48:49;7.75;;;2.08;;
52768;SDS011;40471;44.534;18.644;2023-11-18T09:51:28;2.13;;;0.75;;
52768;SDS011;40471;44.534;18.644;2023-11-18T10:00:04;18.50;;;3.80;;
52768;SDS011;40471;44.534;18.644;2023-11-18T10:02:47;3.08;;;1.67;;
52768;SDS011;40471;44.534;18.644;2023-11-18T10:05:15;4.20;;;1.35;;
52768;SDS011;40471;44.534;18.644;2023-11-18T10:07:45;10.93;;;3.10;;
52768;SDS011;40471;44.534;18.644;2023-11-18T10:10:23;4.28;;;1.50;;
52768;SDS011;40471;44.534;18.644;2023-11-18T10:12:52;1.50;;;0.60;;
52768;SDS011;40471;44.534;18.644;2023-11-18T10:15:18;2.00;;;1.00;;
52768;SDS011;40471;44.534;18.644;2023-11-18T10:17:52;2.90;;;0.93;;
52768;SDS011;40471;44.534;18.644;2023-11-18T10:20:50;0.95;;;0.80;;
52768;SDS011;40471;44.534;18.644;2023-11-18T10:23:17;6.95;;;1.55;;
52768;SDS011;40471;44.534;18.644;2023-11-18T10:28:21;2.65;;;0.82;;
52768;SDS011;40471;44.534;18.644;2023-11-18T10:30:52;9.57;;;3.80;;
52768;SDS011;40471;44.534;18.644;2023-11-18T10:33:28;0.93;;;0.50;;
52768;SDS011;40471;44.534;18.644;2023-11-18T10:36:02;6.78;;;1.15;;
52768;SDS011;40471;44.534;18.644;2023-11-18T10:38:29;3.80;;;1.75;;
52768;SDS011;40471;44.534;18.644;2023-11-18T10:41:04;5.40;;;2.33;;
52768;SDS011;40471;44.534;18.644;2023-11-18T10:46:08;3.95;;;1.05;;
52768;SDS011;40471;44.534;18.644;2023-11-18T10:55:40;5.63;;;1.23;;
52768;SDS011;40471;44.534;18.644;2023-11-18T10:58:06;5.55;;;0.90;;
52768;SDS011;40471;44.534;18.644;2023-11-18T11:00:50;4.65;;;2.22;;
52768;SDS011;40471;44.534;18.644;2023-11-18T11:03:20;2.35;;;1.05;;
52768;SDS011;40471;44.534;18.644;2023-11-18T11:05:49;3.08;;;1.50;;
52768;SDS011;40471;44.534;18.644;2023-11-18T11:08:15;4.57;;;1.67;;
52768;SDS011;40471;44.534;18.644;2023-11-18T11:10:42;6.87;;;2.27;;
52768;SDS011;40471;44.534;18.644;2023-11-18T11:13:08;5.10;;;2.45;;
52768;SDS011;40471;44.534;18.644;2023-11-18T11:15:42;4.93;;;1.92;;
52768;SDS011;40471;44.534;18.644;2023-11-18T11:18:21;2.60;;;1.63;;
52768;SDS011;40471;44.534;18.644;2023-11-18T11:20:57;9.70;;;1.23;;
52768;SDS011;40471;44.534;18.644;2023-11-18T11:32:07;4.85;;;2.22;;
52768;SDS011;40471;44.534;18.644;2023-11-18T11:34:56;1.10;;;0.40;;
52768;SDS011;40471;44.534;18.644;2023-11-18T11:37:32;3.95;;;1.13;;
52768;SDS011;40471;44.534;18.644;2023-11-18T11:40:00;5.70;;;2.83;;
52768;SDS011;40471;44.534;18.644;2023-11-18T11:42:32;8.23;;;5.13;;
52768;SDS011;40471;44.534;18.644;2023-11-18T11:44:59;5.22;;;2.97;;
52768;SDS011;40471;44.534;18.644;2023-11-18T11:47:27;7.57;;;2.78;;
52768;SDS011;40471;44.534;18.644;2023-11-18T11:50:11;3.97;;;1.48;;
52768;SDS011;40471;44.534;18.644;2023-11-18T11:52:47;4.97;;;2.53;;
52768;SDS011;40471;44.534;18.644;2023-11-18T11:55:23;8.50;;;3.75;;
52768;SDS011;40471;44.534;18.644;2023-11-18T11:57:58;4.80;;;2.75;;
52768;SDS011;40471;44.534;18.644;2023-11-18T12:00:25;5.28;;;2.05;;
52768;SDS011;40471;44.534;18.644;2023-11-18T12:02:59;12.15;;;3.85;;
52768;SDS011;40471;44.534;18.644;2023-11-18T12:05:30;7.85;;;2.28;;
52768;SDS011;40471;44.534;18.644;2023-11-18T12:07:59;1.77;;;0.73;;
52768;SDS011;40471;44.534;18.644;2023-11-18T12:10:30;9.93;;;4.80;;
52768;SDS011;40471;44.534;18.644;2023-11-18T12:13:09;3.53;;;2.10;;
52768;SDS011;40471;44.534;18.644;2023-11-18T12:15:47;5.53;;;2.03;;
52768;SDS011;40471;44.534;18.644;2023-11-18T12:18:22;2.20;;;1.35;;
52768;SDS011;40471;44.534;18.644;2023-11-18T12:20:52;8.00;;;2.28;;
52768;SDS011;40471;44.534;18.644;2023-11-18T12:23:21;4.20;;;1.23;;
52768;SDS011;40471;44.534;18.644;2023-11-18T12:25:53;4.32;;;2.10;;
52768;SDS011;40471;44.534;18.644;2023-11-18T12:28:21;1.88;;;0.98;;
52768;SDS011;40471;44.534;18.644;2023-11-18T12:30:54;7.88;;;3.33;;
52768;SDS011;40471;44.534;18.644;2023-11-18T12:36:44;10.25;;;5.53;;
52768;SDS011;40471;44.534;18.644;2023-11-18T12:48:30;10.68;;;2.38;;
52768;SDS011;40471;44.534;18.644;2023-11-18T12:50:57;10.10;;;3.10;;
52768;SDS011;40471;44.534;18.644;2023-11-18T12:53:24;2.50;;;1.00;;
52768;SDS011;40471;44.534;18.644;2023-11-18T12:55:50;9.57;;;2.97;;
52768;SDS011;40471;44.534;18.644;2023-11-18T12:58:17;4.82;;;3.10;;
52768;SDS011;40471;44.534;18.644;2023-11-18T13:00:43;3.30;;;1.43;;
52768;SDS011;40471;44.534;18.644;2023-11-18T13:03:11;8.93;;;3.78;;
52768;SDS011;40471;44.534;18.644;2023-11-18T13:05:40;3.63;;;2.42;;
52768;SDS011;40471;44.534;18.644;2023-11-18T13:08:08;11.10;;;4.25;;
52768;SDS011;40471;44.534;18.644;2023-11-18T13:10:35;2.42;;;1.35;;
52768;SDS011;40471;44.534;18.644;2023-11-18T13:15:27;12.50;;;8.70;;
52768;SDS011;40471;44.534;18.644;2023-11-18T13:17:58;3.58;;;2.53;;
52768;SDS011;40471;44.534;18.644;2023-11-18T13:20:31;8.50;;;3.47;;
52768;SDS011;40471;44.534;18.644;2023-11-18T13:23:01;5.22;;;1.40;;
52768;SDS011;40471;44.534;18.644;2023-11-18T13:25:33;6.35;;;2.20;;
52768;SDS011;40471;44.534;18.644;2023-11-18T13:28:01;6.72;;;2.42;;
52768;SDS011;40471;44.534;18.644;2023-11-18T13:30:30;5.88;;;2.78;;
52768;SDS011;40471;44.534;18.644;2023-11-18T13:32:55;9.17;;;2.10;;
52768;SDS011;40471;44.534;18.644;2023-11-18T13:37:49;6.20;;;1.50;;
52768;SDS011;40471;44.534;18.644;2023-11-18T13:40:15;4.28;;;1.10;;
52768;SDS011;40471;44.534;18.644;2023-11-18T13:42:44;7.85;;;2.38;;
52768;SDS011;40471;44.534;18.644;2023-11-18T13:45:12;5.28;;;2.20;;
52768;SDS011;40471;44.534;18.644;2023-11-18T13:47:50;6.28;;;2.88;;
52768;SDS011;40471;44.534;18.644;2023-11-18T13:50:20;17.83;;;7.32;;
52768;SDS011;40471;44.534;18.644;2023-11-18T13:52:46;14.40;;;8.77;;
52768;SDS011;40471;44.534;18.644;2023-11-18T13:55:14;4.47;;;2.40;;
52768;SDS011;40471;44.534;18.644;2023-11-18T13:57:57;8.82;;;3.45;;
52768;SDS011;40471;44.534;18.644;2023-11-18T14:00:26;7.20;;;5.00;;
52768;SDS011;40471;44.534;18.644;2023-11-18T14:02:55;8.77;;;6.28;;
52768;SDS011;40471;44.534;18.644;2023-11-18T14:05:22;3.08;;;1.98;;
52768;SDS011;40471;44.534;18.644;2023-11-18T14:07:52;12.88;;;7.93;;
52768;SDS011;40471;44.534;18.644;2023-11-18T14:10:24;8.13;;;3.75;;
52768;SDS011;40471;44.534;18.644;2023-11-18T14:13:01;10.48;;;6.00;;
52768;SDS011;40471;44.534;18.644;2023-11-18T14:17:54;4.95;;;2.20;;
52768;SDS011;40471;44.534;18.644;2023-11-18T14:20:20;12.93;;;3.57;;
52768;SDS011;40471;44.534;18.644;2023-11-18T14:25:13;10.13;;;1.98;;
52768;SDS011;40471;44.534;18.644;2023-11-18T14:27:39;3.33;;;1.30;;
52768;SDS011;40471;44.534;18.644;2023-11-18T14:30:06;2.95;;;2.08;;
52768;SDS011;40471;44.534;18.644;2023-11-18T14:32:34;7.97;;;4.05;;
52768;SDS011;40471;44.534;18.644;2023-11-18T14:35:00;10.85;;;5.40;;
52768;SDS011;40471;44.534;18.644;2023-11-18T14:37:26;8.52;;;4.32;;
52768;SDS011;40471;44.534;18.644;2023-11-18T14:39:52;16.07;;;6.67;;
52768;SDS011;40471;44.534;18.644;2023-11-18T14:42:19;11.50;;;7.10;;
52768;SDS011;40471;44.534;18.644;2023-11-18T14:44:46;29.08;;;15.65;;
52768;SDS011;40471;44.534;18.644;2023-11-18T14:47:12;8.50;;;6.03;;
52768;SDS011;40471;44.534;18.644;2023-11-18T14:49:37;19.70;;;9.00;;
52768;SDS011;40471;44.534;18.644;2023-11-18T14:52:04;12.48;;;5.40;;
52768;SDS011;40471;44.534;18.644;2023-11-18T14:54:30;11.95;;;7.13;;
52768;SDS011;40471;44.534;18.644;2023-11-18T14:57:00;8.77;;;3.53;;
52768;SDS011;40471;44.534;18.644;2023-11-18T14:59:26;7.72;;;3.65;;
52768;SDS011;40471;44.534;18.644;2023-11-18T15:01:52;15.93;;;7.43;;
52768;SDS011;40471;44.534;18.644;2023-11-18T15:04:22;8.10;;;5.65;;
52768;SDS011;40471;44.534;18.644;2023-11-18T15:06:52;25.67;;;10.18;;
52768;SDS011;40471;44.534;18.644;2023-11-18T15:09:18;14.07;;;10.00;;
52768;SDS011;40471;44.534;18.644;2023-11-18T15:11:46;16.27;;;8.38;;
52768;SDS011;40471;44.534;18.644;2023-11-18T15:14:16;21.90;;;5.35;;
52768;SDS011;40471;44.534;18.644;2023-11-18T15:16:42;40.55;;;19.73;;
52768;SDS011;40471;44.534;18.644;2023-11-18T15:19:10;15.20;;;8.43;;
52768;SDS011;40471;44.534;18.644;2023-11-18T15:21:36;12.68;;;9.85;;
52768;SDS011;40471;44.534;18.644;2023-11-18T15:24:03;33.85;;;24.48;;
52768;SDS011;40471;44.534;18.644;2023-11-18T15:26:29;42.42;;;32.13;;
52768;SDS011;40471;44.534;18.644;2023-11-18T15:28:58;83.47;;;48.38;;
52768;SDS011;40471;44.534;18.644;2023-11-18T15:31:24;77.38;;;44.25;;
52768;SDS011;40471;44.534;18.644;2023-11-18T15:33:50;44.92;;;22.73;;
52768;SDS011;40471;44.534;18.644;2023-11-18T15:36:17;54.40;;;30.47;;
52768;SDS011;40471;44.534;18.644;2023-11-18T15:38:43;50.70;;;29.20;;
52768;SDS011;40471;44.534;18.644;2023-11-18T15:41:09;74.67;;;39.70;;
52768;SDS011;40471;44.534;18.644;2023-11-18T15:43:36;87.30;;;48.55;;
52768;SDS011;40471;44.534;18.644;2023-11-18T15:46:02;21.00;;;10.60;;
52768;SDS011;40471;44.534;18.644;2023-11-18T15:48:31;30.05;;;14.10;;